sensor_id;sensor_type;location;lat;lon;timestamp;P1;durP1;ratioP1;P2;durP2;ratioP2
40599;SDS011;26309;50.924;4.754;2023-05-29T00:00:21;16.45;;;7.28;;
40599;SDS011;26309;50.924;4.754;2023-05-29T00:02:48;16.77;;;7.80;;
40599;SDS011;26309;50.924;4.754;2023-05-29T00:05:14;15.43;;;7.40;;
40599;SDS011;26309;50.924;4.754;2023-05-29T00:07:41;13.77;;;7.05;;
40599;SDS011;26309;50.924;4.754;2023-05-29T00:10:07;13.52;;;7.82;;
40599;SDS011;26309;50.924;4.754;2023-05-29T00:12:35;17.92;;;7.93;;
40599;SDS011;26309;50.924;4.754;2023-05-29T00:15:02;16.92;;;7.78;;
40599;SDS011;26309;50.924;4.754;2023-05-29T00:17:35;14.98;;;7.40;;
40599;SDS011;26309;50.924;4.754;2023-05-29T00:20:02;12.13;;;7.65;;
40599;SDS011;26309;50.924;4.754;2023-05-29T00:22:32;15.65;;;7.53;;
40599;SDS011;26309;50.924;4.754;2023-05-29T00:24:58;14.25;;;7.40;;
40599;SDS011;26309;50.924;4.754;2023-05-29T00:27:24;14.43;;;7.47;;
40599;SDS011;26309;50.924;4.754;2023-05-29T00:29:49;13.32;;;7.97;;
40599;SDS011;26309;50.924;4.754;2023-05-29T00:32:15;15.43;;;8.13;;
40599;SDS011;26309;50.924;4.754;2023-05-29T00:34:41;15.73;;;8.13;;
40599;SDS011;26309;50.924;4.754;2023-05-29T00:37:07;16.17;;;7.72;;
40599;SDS011;26309;50.924;4.754;2023-05-29T00:39:33;15.52;;;8.13;;
40599;SDS011;26309;50.924;4.754;2023-05-29T00:41:59;16.63;;;8.85;;
40599;SDS011;26309;50.924;4.754;2023-05-29T00:44:25;13.77;;;8.27;;
40599;SDS011;26309;50.924;4.754;2023-05-29T00:46:51;13.82;;;8.95;;
40599;SDS011;26309;50.924;4.754;2023-05-29T00:49:18;15.90;;;9.50;;
40599;SDS011;26309;50.924;4.754;2023-05-29T00:51:46;16.98;;;9.07;;
40599;SDS011;26309;50.924;4.754;2023-05-29T00:54:17;20.02;;;9.80;;
40599;SDS011;26309;50.924;4.754;2023-05-29T00:56:46;15.07;;;9.15;;
40599;SDS011;26309;50.924;4.754;2023-05-29T00:59:14;16.95;;;9.40;;
40599;SDS011;26309;50.924;4.754;2023-05-29T01:01:41;21.15;;;9.35;;
40599;SDS011;26309;50.924;4.754;2023-05-29T01:04:08;18.48;;;9.60;;
40599;SDS011;26309;50.924;4.754;2023-05-29T01:06:37;17.02;;;10.55;;
40599;SDS011;26309;50.924;4.754;2023-05-29T01:09:04;15.10;;;8.85;;
40599;SDS011;26309;50.924;4.754;2023-05-29T01:17:15;23.67;;;9.75;;
40599;SDS011;26309;50.924;4.754;2023-05-29T01:22:35;15.75;;;9.38;;
40599;SDS011;26309;50.924;4.754;2023-05-29T01:28:09;16.27;;;9.80;;
40599;SDS011;26309;50.924;4.754;2023-05-29T01:30:37;18.60;;;10.02;;
40599;SDS011;26309;50.924;4.754;2023-05-29T01:33:05;18.60;;;9.75;;
40599;SDS011;26309;50.924;4.754;2023-05-29T01:35:31;19.42;;;10.25;;
40599;SDS011;26309;50.924;4.754;2023-05-29T01:37:57;16.95;;;10.55;;
40599;SDS011;26309;50.924;4.754;2023-05-29T01:40:23;17.15;;;10.65;;
40599;SDS011;26309;50.924;4.754;2023-05-29T01:42:49;19.40;;;9.93;;
40599;SDS011;26309;50.924;4.754;2023-05-29T01:45:15;21.48;;;10.45;;
40599;SDS011;26309;50.924;4.754;2023-05-29T01:47:42;17.55;;;10.40;;
40599;SDS011;26309;50.924;4.754;2023-05-29T01:50:08;15.82;;;9.77;;
40599;SDS011;26309;50.924;4.754;2023-05-29T01:52:35;20.33;;;10.15;;
40599;SDS011;26309;50.924;4.754;2023-05-29T01:55:01;20.65;;;10.45;;
40599;SDS011;26309;50.924;4.754;2023-05-29T01:57:27;19.13;;;9.93;;
40599;SDS011;26309;50.924;4.754;2023-05-29T01:59:54;19.75;;;9.70;;
40599;SDS011;26309;50.924;4.754;2023-05-29T02:02:21;16.75;;;10.73;;
40599;SDS011;26309;50.924;4.754;2023-05-29T02:04:48;20.58;;;10.23;;
40599;SDS011;26309;50.924;4.754;2023-05-29T02:07:14;19.23;;;9.88;;
40599;SDS011;26309;50.924;4.754;2023-05-29T02:09:41;21.40;;;9.85;;
40599;SDS011;26309;50.924;4.754;2023-05-29T02:12:07;22.13;;;10.15;;
40599;SDS011;26309;50.924;4.754;2023-05-29T02:14:33;18.85;;;10.43;;
40599;SDS011;26309;50.924;4.754;2023-05-29T02:17:00;20.33;;;9.65;;
40599;SDS011;26309;50.924;4.754;2023-05-29T02:19:26;16.10;;;9.38;;
40599;SDS011;26309;50.924;4.754;2023-05-29T02:21:52;20.83;;;9.55;;
40599;SDS011;26309;50.924;4.754;2023-05-29T02:24:18;28.45;;;11.18;;
40599;SDS011;26309;50.924;4.754;2023-05-29T02:26:45;15.88;;;9.70;;
40599;SDS011;26309;50.924;4.754;2023-05-29T02:29:13;22.77;;;9.15;;
40599;SDS011;26309;50.924;4.754;2023-05-29T02:31:38;15.00;;;8.45;;
40599;SDS011;26309;50.924;4.754;2023-05-29T02:34:04;20.20;;;9.27;;
40599;SDS011;26309;50.924;4.754;2023-05-29T02:36:30;21.38;;;9.52;;
40599;SDS011;26309;50.924;4.754;2023-05-29T02:38:56;18.85;;;7.82;;
40599;SDS011;26309;50.924;4.754;2023-05-29T02:41:22;19.58;;;8.00;;
40599;SDS011;26309;50.924;4.754;2023-05-29T02:43:48;14.18;;;6.85;;
40599;SDS011;26309;50.924;4.754;2023-05-29T02:46:13;21.27;;;7.10;;
40599;SDS011;26309;50.924;4.754;2023-05-29T02:48:39;18.27;;;7.00;;
40599;SDS011;26309;50.924;4.754;2023-05-29T02:51:05;18.40;;;6.63;;
40599;SDS011;26309;50.924;4.754;2023-05-29T02:53:31;18.45;;;6.53;;
40599;SDS011;26309;50.924;4.754;2023-05-29T02:55:57;19.70;;;7.30;;
40599;SDS011;26309;50.924;4.754;2023-05-29T02:58:22;24.50;;;7.03;;
40599;SDS011;26309;50.924;4.754;2023-05-29T03:00:48;17.93;;;6.73;;
40599;SDS011;26309;50.924;4.754;2023-05-29T03:03:15;21.07;;;6.70;;
40599;SDS011;26309;50.924;4.754;2023-05-29T03:05:41;15.60;;;6.60;;
40599;SDS011;26309;50.924;4.754;2023-05-29T03:08:07;17.07;;;5.77;;
40599;SDS011;26309;50.924;4.754;2023-05-29T03:10:32;15.33;;;6.10;;
40599;SDS011;26309;50.924;4.754;2023-05-29T03:12:58;22.00;;;6.10;;
40599;SDS011;26309;50.924;4.754;2023-05-29T03:15:24;17.50;;;6.30;;
40599;SDS011;26309;50.924;4.754;2023-05-29T03:17:50;14.80;;;6.20;;
40599;SDS011;26309;50.924;4.754;2023-05-29T03:20:15;17.93;;;5.80;;
40599;SDS011;26309;50.924;4.754;2023-05-29T03:22:41;17.00;;;6.03;;
40599;SDS011;26309;50.924;4.754;2023-05-29T03:25:07;14.07;;;5.30;;
40599;SDS011;26309;50.924;4.754;2023-05-29T03:27:33;17.97;;;5.63;;
40599;SDS011;26309;50.924;4.754;2023-05-29T03:29:59;18.53;;;5.53;;
40599;SDS011;26309;50.924;4.754;2023-05-29T03:32:25;16.73;;;6.20;;
40599;SDS011;26309;50.924;4.754;2023-05-29T03:34:51;17.87;;;4.97;;
40599;SDS011;26309;50.924;4.754;2023-05-29T03:37:17;16.10;;;5.57;;
40599;SDS011;26309;50.924;4.754;2023-05-29T03:39:43;11.90;;;4.80;;
40599;SDS011;26309;50.924;4.754;2023-05-29T03:42:08;15.90;;;5.47;;
40599;SDS011;26309;50.924;4.754;2023-05-29T03:44:36;20.10;;;5.53;;
40599;SDS011;26309;50.924;4.754;2023-05-29T03:47:02;19.83;;;5.20;;
40599;SDS011;26309;50.924;4.754;2023-05-29T03:49:28;15.80;;;4.90;;
40599;SDS011;26309;50.924;4.754;2023-05-29T03:51:54;16.47;;;5.40;;
40599;SDS011;26309;50.924;4.754;2023-05-29T03:54:20;16.00;;;4.67;;
40599;SDS011;26309;50.924;4.754;2023-05-29T03:56:45;16.20;;;4.60;;
40599;SDS011;26309;50.924;4.754;2023-05-29T03:59:11;12.97;;;4.80;;
40599;SDS011;26309;50.924;4.754;2023-05-29T04:01:37;19.83;;;5.27;;
40599;SDS011;26309;50.924;4.754;2023-05-29T04:04:03;15.67;;;4.90;;
40599;SDS011;26309;50.924;4.754;2023-05-29T04:06:29;15.10;;;4.90;;
40599;SDS011;26309;50.924;4.754;2023-05-29T04:08:55;20.00;;;4.73;;
40599;SDS011;26309;50.924;4.754;2023-05-29T04:11:20;17.80;;;4.13;;
40599;SDS011;26309;50.924;4.754;2023-05-29T04:13:47;14.57;;;4.40;;
40599;SDS011;26309;50.924;4.754;2023-05-29T04:16:14;15.00;;;4.60;;
40599;SDS011;26309;50.924;4.754;2023-05-29T04:18:40;17.90;;;4.50;;
40599;SDS011;26309;50.924;4.754;2023-05-29T04:21:06;18.93;;;4.40;;
40599;SDS011;26309;50.924;4.754;2023-05-29T04:23:32;21.50;;;4.47;;
40599;SDS011;26309;50.924;4.754;2023-05-29T04:25:58;20.53;;;4.80;;
40599;SDS011;26309;50.924;4.754;2023-05-29T04:28:26;16.57;;;4.20;;
40599;SDS011;26309;50.924;4.754;2023-05-29T04:30:52;10.07;;;3.60;;
40599;SDS011;26309;50.924;4.754;2023-05-29T04:33:20;15.13;;;3.80;;
40599;SDS011;26309;50.924;4.754;2023-05-29T04:35:48;16.73;;;4.40;;
40599;SDS011;26309;50.924;4.754;2023-05-29T04:38:14;12.00;;;3.70;;
40599;SDS011;26309;50.924;4.754;2023-05-29T04:40:41;18.13;;;4.50;;
40599;SDS011;26309;50.924;4.754;2023-05-29T04:43:08;14.37;;;4.07;;
40599;SDS011;26309;50.924;4.754;2023-05-29T04:45:34;17.90;;;4.00;;
40599;SDS011;26309;50.924;4.754;2023-05-29T04:48:02;16.33;;;4.03;;
40599;SDS011;26309;50.924;4.754;2023-05-29T04:50:28;17.63;;;4.43;;
40599;SDS011;26309;50.924;4.754;2023-05-29T04:52:56;17.90;;;4.47;;
40599;SDS011;26309;50.924;4.754;2023-05-29T04:55:22;17.13;;;4.23;;
40599;SDS011;26309;50.924;4.754;2023-05-29T04:57:48;20.10;;;3.60;;
40599;SDS011;26309;50.924;4.754;2023-05-29T05:00:15;16.10;;;4.47;;
40599;SDS011;26309;50.924;4.754;2023-05-29T05:02:43;16.42;;;4.35;;
40599;SDS011;26309;50.924;4.754;2023-05-29T05:05:09;12.65;;;3.45;;
40599;SDS011;26309;50.924;4.754;2023-05-29T05:07:36;12.52;;;3.85;;
40599;SDS011;26309;50.924;4.754;2023-05-29T05:10:02;15.93;;;4.18;;
40599;SDS011;26309;50.924;4.754;2023-05-29T05:14:58;14.13;;;4.00;;
40599;SDS011;26309;50.924;4.754;2023-05-29T05:17:23;17.73;;;4.40;;
40599;SDS011;26309;50.924;4.754;2023-05-29T05:19:49;16.63;;;3.97;;
40599;SDS011;26309;50.924;4.754;2023-05-29T05:22:17;20.88;;;3.88;;
40599;SDS011;26309;50.924;4.754;2023-05-29T05:24:43;16.42;;;3.75;;
40599;SDS011;26309;50.924;4.754;2023-05-29T05:27:11;15.38;;;4.15;;
40599;SDS011;26309;50.924;4.754;2023-05-29T05:29:37;15.52;;;3.92;;
40599;SDS011;26309;50.924;4.754;2023-05-29T05:32:03;13.20;;;3.55;;
40599;SDS011;26309;50.924;4.754;2023-05-29T05:34:29;18.17;;;4.30;;
40599;SDS011;26309;50.924;4.754;2023-05-29T05:36:55;14.55;;;3.78;;
40599;SDS011;26309;50.924;4.754;2023-05-29T05:39:21;18.10;;;3.88;;
40599;SDS011;26309;50.924;4.754;2023-05-29T05:41:47;15.75;;;3.88;;
40599;SDS011;26309;50.924;4.754;2023-05-29T05:44:13;18.27;;;3.90;;
40599;SDS011;26309;50.924;4.754;2023-05-29T05:46:38;20.10;;;3.92;;
40599;SDS011;26309;50.924;4.754;2023-05-29T05:49:04;18.30;;;3.28;;
40599;SDS011;26309;50.924;4.754;2023-05-29T05:51:30;13.88;;;3.90;;
40599;SDS011;26309;50.924;4.754;2023-05-29T05:53:56;13.43;;;4.05;;
40599;SDS011;26309;50.924;4.754;2023-05-29T05:56:22;16.35;;;3.78;;
40599;SDS011;26309;50.924;4.754;2023-05-29T05:58:48;13.65;;;3.95;;
40599;SDS011;26309;50.924;4.754;2023-05-29T06:01:15;17.60;;;4.28;;
40599;SDS011;26309;50.924;4.754;2023-05-29T06:03:41;17.83;;;3.63;;
40599;SDS011;26309;50.924;4.754;2023-05-29T06:06:06;15.85;;;3.50;;
40599;SDS011;26309;50.924;4.754;2023-05-29T06:08:33;10.70;;;3.42;;
40599;SDS011;26309;50.924;4.754;2023-05-29T06:10:59;18.85;;;4.43;;
40599;SDS011;26309;50.924;4.754;2023-05-29T06:13:25;15.75;;;4.05;;
40599;SDS011;26309;50.924;4.754;2023-05-29T06:15:51;19.08;;;4.43;;
40599;SDS011;26309;50.924;4.754;2023-05-29T06:18:17;15.52;;;4.00;;
40599;SDS011;26309;50.924;4.754;2023-05-29T06:20:43;13.32;;;3.67;;
40599;SDS011;26309;50.924;4.754;2023-05-29T06:23:09;22.30;;;4.43;;
40599;SDS011;26309;50.924;4.754;2023-05-29T06:25:35;18.80;;;4.38;;
40599;SDS011;26309;50.924;4.754;2023-05-29T06:28:01;14.82;;;3.78;;
40599;SDS011;26309;50.924;4.754;2023-05-29T06:30:28;15.70;;;3.88;;
40599;SDS011;26309;50.924;4.754;2023-05-29T06:32:54;14.15;;;4.40;;
40599;SDS011;26309;50.924;4.754;2023-05-29T06:35:20;16.52;;;3.55;;
40599;SDS011;26309;50.924;4.754;2023-05-29T06:37:46;18.17;;;3.80;;
40599;SDS011;26309;50.924;4.754;2023-05-29T06:40:12;15.80;;;3.83;;
40599;SDS011;26309;50.924;4.754;2023-05-29T06:42:38;15.80;;;3.75;;
40599;SDS011;26309;50.924;4.754;2023-05-29T06:45:04;16.08;;;3.75;;
40599;SDS011;26309;50.924;4.754;2023-05-29T06:47:30;18.70;;;3.80;;
40599;SDS011;26309;50.924;4.754;2023-05-29T06:49:56;17.38;;;3.80;;
40599;SDS011;26309;50.924;4.754;2023-05-29T06:52:22;12.13;;;3.28;;
40599;SDS011;26309;50.924;4.754;2023-05-29T06:54:48;18.38;;;3.72;;
40599;SDS011;26309;50.924;4.754;2023-05-29T06:57:14;15.32;;;4.43;;
40599;SDS011;26309;50.924;4.754;2023-05-29T06:59:40;18.30;;;3.97;;
40599;SDS011;26309;50.924;4.754;2023-05-29T07:02:06;13.10;;;3.17;;
40599;SDS011;26309;50.924;4.754;2023-05-29T07:04:32;16.55;;;4.03;;
40599;SDS011;26309;50.924;4.754;2023-05-29T07:06:57;13.60;;;3.45;;
40599;SDS011;26309;50.924;4.754;2023-05-29T07:09:23;13.85;;;4.15;;
40599;SDS011;26309;50.924;4.754;2023-05-29T07:11:50;11.48;;;3.60;;
40599;SDS011;26309;50.924;4.754;2023-05-29T07:14:16;14.40;;;3.50;;
40599;SDS011;26309;50.924;4.754;2023-05-29T07:16:42;16.70;;;3.80;;
40599;SDS011;26309;50.924;4.754;2023-05-29T07:19:08;11.45;;;3.33;;
40599;SDS011;26309;50.924;4.754;2023-05-29T07:21:34;18.25;;;3.67;;
40599;SDS011;26309;50.924;4.754;2023-05-29T07:24:01;9.40;;;3.22;;
40599;SDS011;26309;50.924;4.754;2023-05-29T07:26:27;20.25;;;4.00;;
40599;SDS011;26309;50.924;4.754;2023-05-29T07:28:53;15.13;;;3.17;;
40599;SDS011;26309;50.924;4.754;2023-05-29T07:31:19;13.15;;;3.80;;
40599;SDS011;26309;50.924;4.754;2023-05-29T07:33:44;12.50;;;2.90;;
40599;SDS011;26309;50.924;4.754;2023-05-29T07:36:10;12.13;;;3.40;;
40599;SDS011;26309;50.924;4.754;2023-05-29T07:38:38;14.68;;;3.40;;
40599;SDS011;26309;50.924;4.754;2023-05-29T07:41:03;14.43;;;3.47;;
40599;SDS011;26309;50.924;4.754;2023-05-29T07:43:29;9.68;;;3.45;;
40599;SDS011;26309;50.924;4.754;2023-05-29T07:45:55;13.27;;;3.80;;
40599;SDS011;26309;50.924;4.754;2023-05-29T07:48:21;15.80;;;3.88;;
40599;SDS011;26309;50.924;4.754;2023-05-29T07:50:47;15.45;;;3.60;;
40599;SDS011;26309;50.924;4.754;2023-05-29T07:53:13;11.98;;;3.53;;
40599;SDS011;26309;50.924;4.754;2023-05-29T07:55:40;16.20;;;3.95;;
40599;SDS011;26309;50.924;4.754;2023-05-29T07:58:05;16.33;;;3.78;;
40599;SDS011;26309;50.924;4.754;2023-05-29T08:00:32;10.73;;;3.28;;
40599;SDS011;26309;50.924;4.754;2023-05-29T08:02:58;14.25;;;3.15;;
40599;SDS011;26309;50.924;4.754;2023-05-29T08:05:24;14.65;;;3.65;;
40599;SDS011;26309;50.924;4.754;2023-05-29T08:07:50;13.40;;;3.53;;
40599;SDS011;26309;50.924;4.754;2023-05-29T08:10:16;12.90;;;3.30;;
40599;SDS011;26309;50.924;4.754;2023-05-29T08:12:42;6.47;;;2.38;;
40599;SDS011;26309;50.924;4.754;2023-05-29T08:15:08;13.43;;;4.15;;
40599;SDS011;26309;50.924;4.754;2023-05-29T08:17:34;12.55;;;3.53;;
40599;SDS011;26309;50.924;4.754;2023-05-29T08:20:00;16.77;;;3.45;;
40599;SDS011;26309;50.924;4.754;2023-05-29T08:22:29;14.35;;;3.63;;
40599;SDS011;26309;50.924;4.754;2023-05-29T08:24:55;14.65;;;3.45;;
40599;SDS011;26309;50.924;4.754;2023-05-29T08:27:24;14.13;;;4.03;;
40599;SDS011;26309;50.924;4.754;2023-05-29T08:29:50;13.15;;;3.65;;
40599;SDS011;26309;50.924;4.754;2023-05-29T08:32:16;13.93;;;3.90;;
40599;SDS011;26309;50.924;4.754;2023-05-29T08:34:42;14.88;;;3.60;;
40599;SDS011;26309;50.924;4.754;2023-05-29T08:37:10;13.98;;;3.65;;
40599;SDS011;26309;50.924;4.754;2023-05-29T08:39:42;11.95;;;3.30;;
40599;SDS011;26309;50.924;4.754;2023-05-29T08:42:10;14.57;;;3.55;;
40599;SDS011;26309;50.924;4.754;2023-05-29T08:44:40;13.63;;;3.67;;
40599;SDS011;26309;50.924;4.754;2023-05-29T08:47:09;18.50;;;3.78;;
40599;SDS011;26309;50.924;4.754;2023-05-29T08:49:41;14.63;;;4.10;;
40599;SDS011;26309;50.924;4.754;2023-05-29T08:52:19;16.77;;;3.80;;
40599;SDS011;26309;50.924;4.754;2023-05-29T08:54:46;15.50;;;4.10;;
40599;SDS011;26309;50.924;4.754;2023-05-29T08:57:12;15.93;;;3.78;;
40599;SDS011;26309;50.924;4.754;2023-05-29T08:59:39;11.57;;;3.92;;
40599;SDS011;26309;50.924;4.754;2023-05-29T09:02:08;13.40;;;3.63;;
40599;SDS011;26309;50.924;4.754;2023-05-29T09:04:34;14.40;;;3.75;;
40599;SDS011;26309;50.924;4.754;2023-05-29T09:07:00;17.02;;;3.72;;
40599;SDS011;26309;50.924;4.754;2023-05-29T09:09:27;13.43;;;3.78;;
40599;SDS011;26309;50.924;4.754;2023-05-29T09:11:55;16.77;;;3.80;;
40599;SDS011;26309;50.924;4.754;2023-05-29T09:17:10;12.18;;;3.88;;
40599;SDS011;26309;50.924;4.754;2023-05-29T09:19:37;12.45;;;3.65;;
40599;SDS011;26309;50.924;4.754;2023-05-29T09:22:16;13.18;;;3.42;;
40599;SDS011;26309;50.924;4.754;2023-05-29T09:24:46;11.60;;;3.83;;
40599;SDS011;26309;50.924;4.754;2023-05-29T09:27:14;13.27;;;3.75;;
40599;SDS011;26309;50.924;4.754;2023-05-29T09:29:43;13.75;;;3.60;;
40599;SDS011;26309;50.924;4.754;2023-05-29T09:32:15;14.55;;;3.35;;
40599;SDS011;26309;50.924;4.754;2023-05-29T09:34:45;14.73;;;3.55;;
40599;SDS011;26309;50.924;4.754;2023-05-29T09:37:11;14.20;;;3.42;;
40599;SDS011;26309;50.924;4.754;2023-05-29T09:42:06;17.05;;;3.55;;
40599;SDS011;26309;50.924;4.754;2023-05-29T09:44:34;12.75;;;3.53;;
40599;SDS011;26309;50.924;4.754;2023-05-29T09:47:00;12.98;;;3.65;;
40599;SDS011;26309;50.924;4.754;2023-05-29T09:49:26;12.23;;;3.70;;
40599;SDS011;26309;50.924;4.754;2023-05-29T09:51:57;13.43;;;4.07;;
40599;SDS011;26309;50.924;4.754;2023-05-29T09:54:26;11.82;;;3.33;;
40599;SDS011;26309;50.924;4.754;2023-05-29T09:56:57;12.55;;;3.75;;
40599;SDS011;26309;50.924;4.754;2023-05-29T09:59:24;13.02;;;3.78;;
40599;SDS011;26309;50.924;4.754;2023-05-29T10:01:56;13.48;;;3.50;;
40599;SDS011;26309;50.924;4.754;2023-05-29T10:04:29;17.48;;;3.72;;
40599;SDS011;26309;50.924;4.754;2023-05-29T10:06:57;18.65;;;3.88;;
40599;SDS011;26309;50.924;4.754;2023-05-29T10:09:30;12.23;;;3.90;;
40599;SDS011;26309;50.924;4.754;2023-05-29T10:12:00;19.20;;;3.58;;
40599;SDS011;26309;50.924;4.754;2023-05-29T10:14:29;20.27;;;4.15;;
40599;SDS011;26309;50.924;4.754;2023-05-29T10:16:57;14.95;;;3.90;;
40599;SDS011;26309;50.924;4.754;2023-05-29T10:19:28;16.80;;;3.65;;
40599;SDS011;26309;50.924;4.754;2023-05-29T10:21:55;14.20;;;4.15;;
40599;SDS011;26309;50.924;4.754;2023-05-29T10:24:22;12.93;;;4.45;;
40599;SDS011;26309;50.924;4.754;2023-05-29T10:26:49;14.43;;;4.03;;
40599;SDS011;26309;50.924;4.754;2023-05-29T10:40:07;15.63;;;3.70;;
40599;SDS011;26309;50.924;4.754;2023-05-29T10:42:41;13.13;;;3.47;;
40599;SDS011;26309;50.924;4.754;2023-05-29T10:47:56;13.45;;;3.78;;
40599;SDS011;26309;50.924;4.754;2023-05-29T10:53:06;12.25;;;3.40;;
40599;SDS011;26309;50.924;4.754;2023-05-29T10:55:36;12.38;;;3.30;;
40599;SDS011;26309;50.924;4.754;2023-05-29T10:58:06;10.70;;;3.45;;
40599;SDS011;26309;50.924;4.754;2023-05-29T11:00:33;13.93;;;3.60;;
40599;SDS011;26309;50.924;4.754;2023-05-29T11:03:09;12.13;;;3.40;;
40599;SDS011;26309;50.924;4.754;2023-05-29T11:08:44;13.52;;;3.53;;
40599;SDS011;26309;50.924;4.754;2023-05-29T11:11:15;14.38;;;3.33;;
40599;SDS011;26309;50.924;4.754;2023-05-29T11:13:57;12.07;;;3.08;;
40599;SDS011;26309;50.924;4.754;2023-05-29T11:18:58;12.90;;;3.33;;
40599;SDS011;26309;50.924;4.754;2023-05-29T11:21:33;11.55;;;3.17;;
40599;SDS011;26309;50.924;4.754;2023-05-29T11:24:12;10.93;;;2.90;;
40599;SDS011;26309;50.924;4.754;2023-05-29T11:26:49;13.55;;;3.67;;
40599;SDS011;26309;50.924;4.754;2023-05-29T11:29:24;14.30;;;3.22;;
40599;SDS011;26309;50.924;4.754;2023-05-29T11:34:29;15.98;;;3.00;;
40599;SDS011;26309;50.924;4.754;2023-05-29T11:37:02;14.52;;;3.47;;
40599;SDS011;26309;50.924;4.754;2023-05-29T11:39:29;12.35;;;3.50;;
40599;SDS011;26309;50.924;4.754;2023-05-29T11:41:56;13.50;;;3.40;;
40599;SDS011;26309;50.924;4.754;2023-05-29T11:44:25;10.90;;;3.08;;
40599;SDS011;26309;50.924;4.754;2023-05-29T11:47:09;14.57;;;3.80;;
40599;SDS011;26309;50.924;4.754;2023-05-29T11:49:35;13.05;;;3.40;;
40599;SDS011;26309;50.924;4.754;2023-05-29T11:52:09;10.98;;;3.67;;
40599;SDS011;26309;50.924;4.754;2023-05-29T11:54:36;15.07;;;3.03;;
40599;SDS011;26309;50.924;4.754;2023-05-29T11:57:02;15.98;;;3.42;;
40599;SDS011;26309;50.924;4.754;2023-05-29T11:59:35;8.40;;;2.95;;
40599;SDS011;26309;50.924;4.754;2023-05-29T12:02:04;13.73;;;3.90;;
40599;SDS011;26309;50.924;4.754;2023-05-29T12:04:30;10.35;;;3.67;;
40599;SDS011;26309;50.924;4.754;2023-05-29T12:06:56;9.23;;;3.30;;
40599;SDS011;26309;50.924;4.754;2023-05-29T12:09:28;9.15;;;2.95;;
40599;SDS011;26309;50.924;4.754;2023-05-29T12:12:01;12.68;;;3.40;;
40599;SDS011;26309;50.924;4.754;2023-05-29T12:14:30;12.63;;;3.35;;
40599;SDS011;26309;50.924;4.754;2023-05-29T12:16:59;10.73;;;3.03;;
40599;SDS011;26309;50.924;4.754;2023-05-29T12:19:25;6.82;;;2.88;;
40599;SDS011;26309;50.924;4.754;2023-05-29T12:21:52;13.55;;;3.95;;
40599;SDS011;26309;50.924;4.754;2023-05-29T12:24:18;8.98;;;2.97;;
40599;SDS011;26309;50.924;4.754;2023-05-29T12:26:44;8.02;;;3.03;;
40599;SDS011;26309;50.924;4.754;2023-05-29T12:29:12;11.70;;;3.47;;
40599;SDS011;26309;50.924;4.754;2023-05-29T12:31:38;9.60;;;3.90;;
40599;SDS011;26309;50.924;4.754;2023-05-29T12:34:08;11.07;;;3.80;;
40599;SDS011;26309;50.924;4.754;2023-05-29T12:36:35;9.00;;;3.10;;
40599;SDS011;26309;50.924;4.754;2023-05-29T12:39:06;9.10;;;3.08;;
40599;SDS011;26309;50.924;4.754;2023-05-29T12:41:36;7.45;;;2.92;;
40599;SDS011;26309;50.924;4.754;2023-05-29T12:44:03;10.93;;;3.50;;
40599;SDS011;26309;50.924;4.754;2023-05-29T12:46:40;11.50;;;3.28;;
40599;SDS011;26309;50.924;4.754;2023-05-29T12:49:16;11.82;;;3.42;;
40599;SDS011;26309;50.924;4.754;2023-05-29T12:51:51;9.05;;;3.58;;
40599;SDS011;26309;50.924;4.754;2023-05-29T12:54:17;12.60;;;3.50;;
40599;SDS011;26309;50.924;4.754;2023-05-29T12:56:43;9.80;;;3.42;;
40599;SDS011;26309;50.924;4.754;2023-05-29T12:59:11;11.95;;;3.63;;
40599;SDS011;26309;50.924;4.754;2023-05-29T13:01:37;9.45;;;3.40;;
40599;SDS011;26309;50.924;4.754;2023-05-29T13:04:04;14.45;;;3.47;;
40599;SDS011;26309;50.924;4.754;2023-05-29T13:06:34;12.55;;;3.25;;
40599;SDS011;26309;50.924;4.754;2023-05-29T13:09:00;10.30;;;3.25;;
40599;SDS011;26309;50.924;4.754;2023-05-29T13:11:26;15.07;;;3.58;;
40599;SDS011;26309;50.924;4.754;2023-05-29T13:13:52;9.10;;;3.20;;
40599;SDS011;26309;50.924;4.754;2023-05-29T13:16:18;13.65;;;3.60;;
40599;SDS011;26309;50.924;4.754;2023-05-29T13:18:45;7.90;;;3.05;;
40599;SDS011;26309;50.924;4.754;2023-05-29T13:21:11;13.00;;;3.35;;
40599;SDS011;26309;50.924;4.754;2023-05-29T13:23:36;9.15;;;3.10;;
40599;SDS011;26309;50.924;4.754;2023-05-29T13:26:05;8.80;;;3.50;;
40599;SDS011;26309;50.924;4.754;2023-05-29T13:28:32;9.80;;;3.00;;
40599;SDS011;26309;50.924;4.754;2023-05-29T13:30:58;9.10;;;3.10;;
40599;SDS011;26309;50.924;4.754;2023-05-29T13:33:24;14.55;;;3.60;;
40599;SDS011;26309;50.924;4.754;2023-05-29T13:35:50;12.70;;;3.40;;
40599;SDS011;26309;50.924;4.754;2023-05-29T13:38:16;13.40;;;3.30;;
40599;SDS011;26309;50.924;4.754;2023-05-29T13:40:41;9.77;;;2.85;;
40599;SDS011;26309;50.924;4.754;2023-05-29T13:43:07;11.10;;;3.28;;
40599;SDS011;26309;50.924;4.754;2023-05-29T13:45:33;9.98;;;2.90;;
40599;SDS011;26309;50.924;4.754;2023-05-29T13:47:59;10.20;;;3.20;;
40599;SDS011;26309;50.924;4.754;2023-05-29T13:50:26;12.60;;;3.60;;
40599;SDS011;26309;50.924;4.754;2023-05-29T13:52:52;10.88;;;3.72;;
40599;SDS011;26309;50.924;4.754;2023-05-29T13:55:18;11.27;;;3.50;;
40599;SDS011;26309;50.924;4.754;2023-05-29T13:57:44;13.25;;;3.55;;
40599;SDS011;26309;50.924;4.754;2023-05-29T14:00:10;9.43;;;2.80;;
40599;SDS011;26309;50.924;4.754;2023-05-29T14:02:36;9.38;;;3.20;;
40599;SDS011;26309;50.924;4.754;2023-05-29T14:05:02;9.30;;;3.13;;
40599;SDS011;26309;50.924;4.754;2023-05-29T14:07:29;9.50;;;3.15;;
40599;SDS011;26309;50.924;4.754;2023-05-29T14:09:55;8.88;;;3.40;;
40599;SDS011;26309;50.924;4.754;2023-05-29T14:12:20;10.13;;;3.10;;
40599;SDS011;26309;50.924;4.754;2023-05-29T14:14:46;11.95;;;3.40;;
40599;SDS011;26309;50.924;4.754;2023-05-29T14:17:13;16.13;;;3.47;;
40599;SDS011;26309;50.924;4.754;2023-05-29T14:19:40;9.52;;;3.00;;
40599;SDS011;26309;50.924;4.754;2023-05-29T14:22:06;8.88;;;3.15;;
40599;SDS011;26309;50.924;4.754;2023-05-29T14:24:32;9.93;;;3.38;;
40599;SDS011;26309;50.924;4.754;2023-05-29T14:26:58;10.80;;;2.97;;
40599;SDS011;26309;50.924;4.754;2023-05-29T14:29:23;10.60;;;3.50;;
40599;SDS011;26309;50.924;4.754;2023-05-29T14:31:50;10.73;;;3.20;;
40599;SDS011;26309;50.924;4.754;2023-05-29T14:34:17;12.52;;;3.63;;
40599;SDS011;26309;50.924;4.754;2023-05-29T14:36:43;10.95;;;3.08;;
40599;SDS011;26309;50.924;4.754;2023-05-29T14:39:09;7.85;;;3.03;;
40599;SDS011;26309;50.924;4.754;2023-05-29T14:41:36;8.43;;;3.10;;
40599;SDS011;26309;50.924;4.754;2023-05-29T14:44:02;8.48;;;3.13;;
40599;SDS011;26309;50.924;4.754;2023-05-29T14:46:28;9.77;;;2.80;;
40599;SDS011;26309;50.924;4.754;2023-05-29T14:48:57;6.13;;;2.95;;
40599;SDS011;26309;50.924;4.754;2023-05-29T14:51:23;11.20;;;3.30;;
40599;SDS011;26309;50.924;4.754;2023-05-29T14:53:49;5.80;;;2.92;;
40599;SDS011;26309;50.924;4.754;2023-05-29T14:56:15;9.60;;;3.08;;
40599;SDS011;26309;50.924;4.754;2023-05-29T14:58:43;8.25;;;3.03;;
40599;SDS011;26309;50.924;4.754;2023-05-29T15:01:10;10.55;;;3.25;;
40599;SDS011;26309;50.924;4.754;2023-05-29T15:03:36;9.98;;;2.97;;
40599;SDS011;26309;50.924;4.754;2023-05-29T15:06:05;8.30;;;3.53;;
40599;SDS011;26309;50.924;4.754;2023-05-29T15:08:35;7.22;;;2.90;;
40599;SDS011;26309;50.924;4.754;2023-05-29T15:11:01;9.00;;;3.33;;
40599;SDS011;26309;50.924;4.754;2023-05-29T15:13:30;8.82;;;2.97;;
40599;SDS011;26309;50.924;4.754;2023-05-29T15:15:56;11.80;;;3.13;;
40599;SDS011;26309;50.924;4.754;2023-05-29T15:18:32;12.43;;;3.55;;